Greene, Ohio
Current Conditions -  °F | °C
As of 2:51 PM on Friday 24 Oct 2014 (Local Time) from KYNG Reporting Station
Scattered Clouds Scattered Clouds  
Wind Chill: 61°   Ceiling: Unl
Heat Index: 61°   Visibility: 10mi
Dew Point: 38°   Wind: 7mph
Humidity: 42%   Direction: 330°NNW
Pressure: 30.02"   Gusts: NA
Location:  41.4555°N, 80.829°W
Report Text: KYNG 241851Z 33006KT 10SM SCT250 16/03 A3002 RMK AO2 SLP167 T01610033 $
Loading
Personal Weather Stations






























Interactive Weather Map
Tropical Storm Tracking
New forecast layout! Learn more

10-Day Weather Forecast

Advertisements
Track Severe Weather on mobile